createdAt,value
2019-05-21T00:02:00.672Z,94735.98
2019-05-21T00:04:28.586Z,94742.80
2019-05-21T00:06:54.732Z,94743.30
2019-05-21T00:09:20.840Z,94745.89
2019-05-21T00:11:46.851Z,94741.32
2019-05-21T00:14:12.851Z,94745.98
2019-05-21T00:16:38.964Z,94744.33
2019-05-21T00:19:04.961Z,94741.67
2019-05-21T00:21:31.098Z,94748.73
2019-05-21T00:23:56.990Z,94740.52
2019-05-21T00:26:22.993Z,94727.77
2019-05-21T00:29:26.032Z,94737.02
2019-05-21T00:32:29.681Z,94738.53
2019-05-21T00:35:47.282Z,94729.45
2019-05-21T00:38:52.178Z,94725.17
2019-05-21T00:41:55.323Z,94729.28
2019-05-21T00:44:21.477Z,94734.80
2019-05-21T00:46:47.581Z,94723.36
2019-05-21T00:49:13.694Z,94721.78
2019-05-21T00:51:39.605Z,94724.98
2019-05-21T00:54:05.737Z,94726.93
2019-05-21T00:56:31.651Z,94733.98
2019-05-21T00:58:57.651Z,94727.03
2019-05-21T01:01:23.558Z,94723.36
2019-05-21T01:03:49.564Z,94723.87
2019-05-21T01:06:15.565Z,94722.30
2019-05-21T01:08:41.668Z,94722.78
2019-05-21T01:11:07.780Z,94724.86
2019-05-21T01:13:33.782Z,94720.83
2019-05-21T01:15:59.788Z,94720.23
2019-05-21T01:18:25.838Z,94717.09
2019-05-21T01:20:52.043Z,94709.54
2019-05-21T01:23:18.009Z,94717.00
2019-05-21T01:25:43.906Z,94727.33
2019-05-21T01:28:10.026Z,94721.55
2019-05-21T01:30:36.148Z,94714.44
2019-05-21T01:33:02.147Z,94700.19
2019-05-21T01:35:28.189Z,94697.30
2019-05-21T01:37:54.226Z,94701.84
2019-05-21T01:40:20.363Z,94698.94
2019-05-21T01:42:46.267Z,94696.86
2019-05-21T01:45:12.417Z,94697.64
2019-05-21T01:47:38.425Z,94691.59
2019-05-21T01:50:05.101Z,94684.45
2019-05-21T01:52:31.095Z,94686.58
2019-05-21T01:54:57.010Z,94687.12
2019-05-21T01:57:23.136Z,94686.36
2019-05-21T01:59:49.142Z,94685.60
2019-05-21T02:02:15.160Z,94685.91
2019-05-21T02:04:41.163Z,94684.84
2019-05-21T02:07:07.271Z,94679.35
2019-05-21T02:09:35.331Z,94683.11
2019-05-21T02:12:01.483Z,94685.75
2019-05-21T02:14:27.427Z,94683.66
2019-05-21T02:16:53.561Z,94672.80
2019-05-21T02:19:19.582Z,94676.04
2019-05-21T02:21:45.693Z,94686.45
2019-05-21T02:24:11.703Z,94683.82
2019-05-21T02:26:37.817Z,94679.33
2019-05-21T02:29:03.953Z,94678.56
2019-05-21T02:31:29.859Z,94674.20
2019-05-21T02:33:55.940Z,94672.80
2019-05-21T02:36:22.341Z,94670.17
2019-05-21T02:38:48.447Z,94675.52
2019-05-21T02:41:14.600Z,94672.08
2019-05-21T02:43:40.714Z,94660.70
2019-05-21T02:46:06.806Z,94659.94
2019-05-21T02:48:32.940Z,94666.31
2019-05-21T02:50:58.842Z,94667.41
2019-05-21T02:53:24.940Z,94671.20
2019-05-21T02:55:50.989Z,94670.63
2019-05-21T02:58:17.438Z,94673.27
2019-05-21T03:00:48.459Z,94669.28
2019-05-21T03:03:16.444Z,94670.63
2019-05-21T03:05:42.447Z,94669.11
2019-05-21T03:08:08.561Z,94674.93
2019-05-21T03:10:34.662Z,94676.50
2019-05-21T03:13:00.702Z,94684.45
2019-05-21T03:15:26.838Z,94667.98
2019-05-21T03:17:53.554Z,94671.96
2019-05-21T03:20:19.626Z,94669.30
2019-05-21T03:22:45.664Z,94673.46
2019-05-21T03:25:12.002Z,94679.70
2019-05-21T03:27:38.010Z,94670.98
2019-05-21T03:30:06.257Z,94679.28
2019-05-21T03:32:32.410Z,94676.70
2019-05-21T03:34:58.505Z,94683.82
2019-05-21T03:37:24.409Z,94679.58
2019-05-21T03:39:50.551Z,94676.43
2019-05-21T03:42:16.651Z,94680.43
2019-05-21T03:44:58.273Z,94679.72
2019-05-21T03:47:11.292Z,94676.30
2019-05-21T03:49:37.327Z,94669.18
2019-05-21T03:52:03.438Z,94679.03
2019-05-21T03:54:29.450Z,94680.89
2019-05-21T03:56:55.449Z,94677.47
2019-05-21T03:59:21.585Z,94675.70
2019-05-21T04:01:47.692Z,94680.52
2019-05-21T04:04:13.707Z,94680.00
2019-05-21T04:06:51.106Z,94677.91
2019-05-21T04:09:07.895Z,94680.56
2019-05-21T04:11:33.883Z,94677.14
2019-05-21T04:13:59.989Z,94672.93
2019-05-21T04:16:27.899Z,94668.19
2019-05-21T04:18:55.714Z,94661.16
2019-05-21T04:21:21.647Z,94662.75
2019-05-21T04:23:47.810Z,94662.05
2019-05-21T04:26:14.003Z,94661.55
2019-05-21T04:28:40.094Z,94661.82
2019-05-21T04:31:06.118Z,94664.47
2019-05-21T04:33:32.224Z,94665.97
2019-05-21T04:35:58.230Z,94674.63
2019-05-21T04:38:24.233Z,94667.63
2019-05-21T04:40:50.246Z,94672.53
2019-05-21T04:43:16.253Z,94666.80
2019-05-21T04:45:42.281Z,94678.87
2019-05-21T04:48:08.289Z,94673.92
2019-05-21T04:50:34.398Z,94672.66
2019-05-21T04:53:00.521Z,94673.75
2019-05-21T04:55:26.469Z,94671.20
2019-05-21T04:57:52.584Z,94675.75
2019-05-21T05:00:18.775Z,94674.87
2019-05-21T05:02:44.793Z,94680.31
2019-05-21T05:05:10.899Z,94681.89
2019-05-21T05:07:37.004Z,94685.36
2019-05-21T05:10:04.805Z,94679.49
2019-05-21T05:12:30.815Z,94678.66
2019-05-21T05:14:56.866Z,94679.88
2019-05-21T05:17:22.767Z,94678.80
2019-05-21T05:19:48.909Z,94677.80
2019-05-21T05:22:14.952Z,94682.34
2019-05-21T05:24:40.887Z,94680.55
2019-05-21T05:27:06.890Z,94677.95
2019-05-21T05:29:32.894Z,94684.59
2019-05-21T05:31:58.947Z,94684.66
2019-05-21T05:34:24.877Z,94688.97
2019-05-21T05:36:50.979Z,94684.06
2019-05-21T05:39:17.082Z,94684.98
2019-05-21T05:41:43.136Z,94690.35
2019-05-21T05:44:09.237Z,94686.13
2019-05-21T05:46:35.263Z,94692.50
2019-05-21T05:49:03.078Z,94695.37
2019-05-21T05:51:29.010Z,94701.16
2019-05-21T05:53:57.762Z,94701.23
2019-05-21T05:56:24.999Z,94702.66
2019-05-21T05:58:51.089Z,94699.55
2019-05-21T06:01:17.186Z,94704.63
2019-05-21T06:03:43.089Z,94705.69
2019-05-21T06:06:09.102Z,94701.91
2019-05-21T06:08:34.998Z,94706.19
2019-05-21T06:11:00.912Z,94703.29
2019-05-21T06:13:27.023Z,94698.79
2019-05-21T06:15:53.144Z,94700.17
2019-05-21T06:18:19.054Z,94704.16
2019-05-21T06:20:45.093Z,94703.09
2019-05-21T06:23:11.195Z,94696.49
2019-05-21T06:25:37.329Z,94698.38
2019-05-21T06:28:03.422Z,94698.84
2019-05-21T06:30:29.537Z,94696.64
2019-05-21T06:32:55.660Z,94691.86
2019-05-21T06:35:21.754Z,94692.50
2019-05-21T06:37:47.903Z,94696.03
2019-05-21T06:40:14.218Z,94690.77
2019-05-21T06:42:40.116Z,94690.55
2019-05-21T06:45:07.423Z,94693.81
2019-05-21T06:47:33.332Z,94688.55
2019-05-21T06:49:59.788Z,94700.59
2019-05-21T06:52:25.694Z,94692.11
2019-05-21T06:54:51.825Z,94696.41
2019-05-21T06:57:17.751Z,94686.36
2019-05-21T06:59:43.881Z,94683.22
2019-05-21T07:02:10.050Z,94686.95
2019-05-21T07:04:35.942Z,94693.38
2019-05-21T07:07:02.052Z,94698.96
2019-05-21T07:09:28.162Z,94700.84
2019-05-21T07:11:54.166Z,94695.56
2019-05-21T07:14:20.275Z,94695.05
2019-05-21T07:16:46.184Z,94691.09
2019-05-21T07:19:12.292Z,94690.31
2019-05-21T07:21:38.199Z,94688.95
2019-05-21T07:24:04.311Z,94692.87
2019-05-21T07:26:30.437Z,94699.17
2019-05-21T07:28:56.968Z,94693.27
2019-05-21T07:31:23.396Z,94690.61
2019-05-21T07:33:49.514Z,94694.03
2019-05-21T07:36:15.685Z,94683.88
2019-05-21T07:38:52.519Z,94687.91
2019-05-21T07:41:09.713Z,94689.50
2019-05-21T07:43:35.814Z,94690.56
2019-05-21T07:46:02.235Z,94687.61
2019-05-21T07:48:28.275Z,94691.05
2019-05-21T07:50:54.418Z,94688.98
2019-05-21T07:53:20.625Z,94690.39
2019-05-21T07:55:46.740Z,94688.33
2019-05-21T07:58:12.868Z,94684.67
2019-05-21T08:00:38.897Z,94685.48
2019-05-21T08:03:05.013Z,94680.67
2019-05-21T08:05:31.165Z,94684.89
2019-05-21T08:07:57.370Z,94676.88
2019-05-21T08:10:23.420Z,94674.22
2019-05-21T08:12:49.461Z,94678.47
2019-05-21T08:15:15.574Z,94679.02
2019-05-21T08:17:41.720Z,94681.45
2019-05-21T08:20:10.390Z,94677.47
2019-05-21T08:22:36.885Z,94679.38
2019-05-21T08:25:05.120Z,94672.73
2019-05-21T08:27:31.237Z,94676.20
2019-05-21T08:29:57.157Z,94663.72
2019-05-21T08:32:23.268Z,94670.85
2019-05-21T08:34:49.276Z,94669.00
2019-05-21T08:37:15.280Z,94662.68
2019-05-21T08:39:41.418Z,94662.94
2019-05-21T08:42:07.637Z,94663.48
2019-05-21T08:44:33.781Z,94659.82
2019-05-21T08:47:00.210Z,94668.67
2019-05-21T08:49:26.319Z,94677.17
2019-05-21T08:51:52.460Z,94671.83
2019-05-21T08:54:20.479Z,94682.20
2019-05-21T08:56:46.487Z,94678.73
2019-05-21T08:59:12.595Z,94688.31
2019-05-21T09:01:38.604Z,94686.72
2019-05-21T09:04:04.740Z,94683.31
2019-05-21T09:06:30.860Z,94679.84
2019-05-21T09:08:56.869Z,94679.61
2019-05-21T09:11:22.818Z,94677.52
2019-05-21T09:13:48.827Z,94678.91
2019-05-21T09:16:14.846Z,94681.34
2019-05-21T09:18:40.860Z,94682.67
2019-05-21T09:21:06.965Z,94688.54
2019-05-21T09:23:33.094Z,94695.22
2019-05-21T09:25:59.299Z,94689.66
2019-05-21T09:28:25.328Z,94696.58
2019-05-21T09:30:51.439Z,94692.81
2019-05-21T09:33:17.458Z,94696.31
2019-05-21T09:35:43.358Z,94692.89
2019-05-21T09:38:09.259Z,94693.72
2019-05-21T09:40:35.358Z,94693.17
2019-05-21T09:43:01.481Z,94695.05
2019-05-21T09:45:27.589Z,94680.97
2019-05-21T09:47:53.729Z,94690.31
2019-05-21T09:50:19.917Z,94684.44
2019-05-21T09:52:46.214Z,94688.17
2019-05-21T09:55:12.507Z,94697.50
2019-05-21T09:57:52.588Z,94694.02
2019-05-21T10:00:23.621Z,94695.09
2019-05-21T10:02:49.619Z,94691.09
2019-05-21T10:05:15.832Z,94697.22
2019-05-21T10:07:41.969Z,94686.86
2019-05-21T10:10:08.665Z,94698.03
2019-05-21T10:12:34.709Z,94691.62
2019-05-21T10:15:00.838Z,94696.14
2019-05-21T10:17:26.725Z,94694.83
2019-05-21T10:19:52.862Z,94687.92
2019-05-21T10:22:18.975Z,94685.28
2019-05-21T10:24:45.113Z,94688.74
2019-05-21T10:27:11.124Z,94690.09
2019-05-21T10:29:37.149Z,94695.14
2019-05-21T10:32:03.469Z,94688.50
2019-05-21T10:34:29.645Z,94685.05
2019-05-21T10:36:55.648Z,94687.17
2019-05-21T10:39:21.788Z,94682.94
2019-05-21T10:41:47.797Z,94691.48
2019-05-21T10:44:13.957Z,94688.03
2019-05-21T10:46:40.099Z,94686.97
2019-05-21T10:49:06.312Z,94683.81
2019-05-21T10:51:32.531Z,94679.55
2019-05-21T10:53:58.828Z,94689.13
2019-05-21T10:56:24.901Z,94693.41
2019-05-21T10:58:51.016Z,94687.03
2019-05-21T11:01:19.057Z,94687.28
2019-05-21T11:04:03.872Z,94683.56
2019-05-21T11:06:30.079Z,94684.65
2019-05-21T11:08:55.988Z,94691.02
2019-05-21T11:11:22.087Z,94685.98
2019-05-21T11:13:48.213Z,94686.23
2019-05-21T11:16:14.346Z,94688.11
2019-05-21T11:18:40.435Z,94682.25
2019-05-21T11:21:06.447Z,94683.85
2019-05-21T11:23:32.587Z,94675.30
2019-05-21T11:26:00.101Z,94677.97
2019-05-21T11:28:26.099Z,94679.30
2019-05-21T11:30:52.505Z,94673.16
2019-05-21T11:33:18.651Z,94673.98
2019-05-21T11:35:44.772Z,94668.63
2019-05-21T11:38:10.975Z,94671.30
2019-05-21T11:40:37.086Z,94669.95
2019-05-21T11:43:03.194Z,94662.75
2019-05-21T11:45:32.787Z,94661.69
2019-05-21T11:47:57.108Z,94665.18
2019-05-21T11:50:23.316Z,94666.23
2019-05-21T11:52:49.711Z,94661.95
2019-05-21T11:55:15.735Z,94666.50
2019-05-21T11:57:41.835Z,94665.70
2019-05-21T12:00:08.943Z,94674.77
2019-05-21T12:02:36.537Z,94670.24
2019-05-21T12:05:05.389Z,94664.37
2019-05-21T12:07:31.538Z,94666.52
2019-05-21T12:09:57.746Z,94663.30
2019-05-21T12:12:23.857Z,94666.23
2019-05-21T12:14:49.997Z,94657.45
2019-05-21T12:17:16.003Z,94658.23
2019-05-21T12:19:42.151Z,94667.32
2019-05-21T12:22:08.245Z,94666.25
2019-05-21T12:24:34.264Z,94666.52
2019-05-21T12:27:00.359Z,94654.78
2019-05-21T12:29:26.580Z,94658.23
2019-05-21T12:31:52.591Z,94658.51
2019-05-21T12:34:18.500Z,94664.91
2019-05-21T12:36:44.665Z,94657.98
2019-05-21T12:39:14.625Z,94655.31
2019-05-21T12:41:38.967Z,94656.91
2019-05-21T12:44:05.166Z,94649.98
2019-05-21T12:46:31.110Z,94645.19
2019-05-21T12:48:57.228Z,94649.17
2019-05-21T12:51:23.335Z,94642.52
2019-05-21T12:53:49.448Z,94643.05
2019-05-21T12:56:15.460Z,94645.44
2019-05-21T12:58:41.462Z,94647.86
2019-05-21T13:01:07.672Z,94654.78
2019-05-21T13:03:33.676Z,94652.66
2019-05-21T13:05:59.789Z,94651.59
2019-05-21T13:08:25.902Z,94662.23
2019-05-21T13:10:52.138Z,94659.58
2019-05-21T13:13:18.293Z,94670.78
2019-05-21T13:15:44.417Z,94661.46
2019-05-21T13:18:10.519Z,94664.91
2019-05-21T13:20:36.626Z,94653.69
2019-05-21T13:23:03.436Z,94645.97
2019-05-21T13:25:29.606Z,94651.30
2019-05-21T13:27:57.759Z,94657.17
2019-05-21T13:30:24.136Z,94667.06
2019-05-21T13:32:50.136Z,94655.86
2019-05-21T13:35:16.240Z,94660.11
2019-05-21T13:37:42.344Z,94663.86
2019-05-21T13:40:09.246Z,94655.31
2019-05-21T13:42:35.250Z,94660.11
2019-05-21T13:45:01.369Z,94662.52
2019-05-21T13:47:27.416Z,94666.52
2019-05-21T13:49:53.409Z,94659.59
2019-05-21T13:52:19.509Z,94658.78
2019-05-21T13:54:45.515Z,94660.11
2019-05-21T13:57:11.543Z,94665.47
2019-05-21T13:59:37.734Z,94670.78
2019-05-21T14:02:05.153Z,94687.05
2019-05-21T14:04:31.408Z,94691.86
2019-05-21T14:06:57.425Z,94674.23
2019-05-21T14:09:25.368Z,94667.02
2019-05-21T14:11:51.990Z,94671.58
2019-05-21T14:14:18.043Z,94658.52
2019-05-21T14:16:44.055Z,94656.91
2019-05-21T14:19:10.315Z,94646.51
2019-05-21T14:21:36.427Z,94651.06
2019-05-21T14:24:02.703Z,94653.19
2019-05-21T14:26:29.245Z,94650.51
2019-05-21T14:28:55.243Z,94645.19
2019-05-21T14:31:21.356Z,94639.06
2019-05-21T14:33:47.455Z,94643.31
2019-05-21T14:36:13.449Z,94643.06
2019-05-21T14:38:39.572Z,94646.25
2019-05-21T14:41:05.671Z,94647.05
2019-05-21T14:43:31.608Z,94648.39
2019-05-21T14:45:57.765Z,94649.98
2019-05-21T14:48:23.770Z,94656.66
2019-05-21T14:50:49.803Z,94671.59
2019-05-21T14:53:15.945Z,94681.20
2019-05-21T14:55:41.964Z,94647.05
2019-05-21T14:58:08.018Z,94657.98
2019-05-21T15:00:36.132Z,94655.30
2019-05-21T15:03:02.541Z,94645.98
2019-05-21T15:05:28.647Z,94648.91
2019-05-21T15:07:54.705Z,94647.31
2019-05-21T15:10:20.819Z,94647.85
2019-05-21T15:12:46.980Z,94647.31
2019-05-21T15:15:13.345Z,94646.23
2019-05-21T15:17:39.492Z,94636.11
2019-05-21T15:20:15.104Z,94634.77
2019-05-21T15:22:41.043Z,94640.36
2019-05-21T15:25:07.148Z,94630.23
2019-05-21T15:27:33.258Z,94637.19
2019-05-21T15:29:59.171Z,94634.52
2019-05-21T15:32:26.323Z,94628.63
2019-05-21T15:34:52.974Z,94629.44
2019-05-21T15:37:19.103Z,94627.02
2019-05-21T15:39:45.093Z,94616.61
2019-05-21T15:42:11.138Z,94620.10
2019-05-21T15:44:37.241Z,94609.71
2019-05-21T15:47:03.351Z,94611.30
2019-05-21T15:49:36.309Z,94611.27
2019-05-21T15:51:57.385Z,94617.93
2019-05-21T15:54:23.496Z,94610.44
2019-05-21T15:56:49.512Z,94617.39
2019-05-21T15:59:15.655Z,94617.39
2019-05-21T16:01:41.777Z,94623.26
2019-05-21T16:04:07.888Z,94621.09
2019-05-21T16:06:34.000Z,94618.42
2019-05-21T16:08:59.935Z,94616.31
2019-05-21T16:11:28.994Z,94619.75
2019-05-21T16:13:54.054Z,94624.30
2019-05-21T16:16:19.964Z,94626.42
2019-05-21T16:18:46.015Z,94637.34
2019-05-21T16:21:12.123Z,94640.81
2019-05-21T16:23:38.022Z,94646.94
2019-05-21T16:26:04.127Z,94660.02
2019-05-21T16:28:30.027Z,94657.34
2019-05-21T16:30:56.214Z,94650.94
2019-05-21T16:33:22.236Z,94652.01
2019-05-21T16:35:48.240Z,94651.22
2019-05-21T16:38:15.218Z,94649.08
2019-05-21T16:40:41.384Z,94645.88
2019-05-21T16:43:07.430Z,94646.95
2019-05-21T16:45:33.542Z,94647.73
2019-05-21T16:47:59.951Z,94649.33
2019-05-21T16:50:26.501Z,94656.52
2019-05-21T16:52:52.812Z,94650.13
2019-05-21T16:55:18.960Z,94650.13
2019-05-21T16:57:45.075Z,94646.14
2019-05-21T17:00:14.898Z,94658.13
2019-05-21T17:02:41.300Z,94659.17
2019-05-21T17:05:07.509Z,94656.77
2019-05-21T17:07:33.730Z,94655.99
2019-05-21T17:09:59.831Z,94658.36
2019-05-21T17:12:25.945Z,94663.14
2019-05-21T17:14:51.962Z,94665.55
2019-05-21T17:17:18.074Z,94657.80
2019-05-21T17:19:45.121Z,94671.33
2019-05-21T17:22:11.265Z,94667.31
2019-05-21T17:24:37.377Z,94663.08
2019-05-21T17:27:03.483Z,94661.21
2019-05-21T17:29:29.392Z,94656.17
2019-05-21T17:31:55.434Z,94650.30
2019-05-21T17:34:21.687Z,94657.50
2019-05-21T17:36:47.702Z,94663.89
2019-05-21T17:39:13.840Z,94657.50
2019-05-21T17:41:40.094Z,94658.05
2019-05-21T17:44:07.473Z,94676.69
2019-05-21T17:46:33.717Z,94681.47
2019-05-21T17:48:59.827Z,94684.92
2019-05-21T17:51:26.154Z,94682.52
2019-05-21T17:53:52.353Z,94672.94
2019-05-21T17:56:18.483Z,94681.19
2019-05-21T17:58:44.592Z,94686.80
2019-05-21T18:01:12.632Z,94685.73
2019-05-21T18:03:38.754Z,94691.06
2019-05-21T18:06:05.963Z,94688.11
2019-05-21T18:08:32.510Z,94688.66
2019-05-21T18:10:59.173Z,94683.05
2019-05-21T18:13:25.895Z,94670.25
2019-05-21T18:15:52.311Z,94664.40
2019-05-21T18:18:18.527Z,94672.13
2019-05-21T18:20:44.535Z,94671.84
2019-05-21T18:23:10.547Z,94667.34
2019-05-21T18:25:36.755Z,94665.19
2019-05-21T18:28:03.062Z,94663.86
2019-05-21T18:30:29.256Z,94666.23
2019-05-21T18:32:55.538Z,94664.91
2019-05-21T18:35:22.087Z,94668.36
2019-05-21T18:37:48.202Z,94672.87
2019-05-21T18:40:15.520Z,94670.73
2019-05-21T18:42:41.638Z,94678.45
2019-05-21T18:45:09.374Z,94678.45
2019-05-21T18:47:35.487Z,94675.80
2019-05-21T18:50:02.044Z,94668.59
2019-05-21T18:52:28.022Z,94671.25
2019-05-21T18:54:54.053Z,94669.66
2019-05-21T18:57:20.099Z,94671.52
2019-05-21T18:59:46.104Z,94676.03
2019-05-21T19:02:13.323Z,94674.69
2019-05-21T19:04:39.426Z,94674.69
2019-05-21T19:07:05.450Z,94674.94
2019-05-21T19:09:31.579Z,94668.28
2019-05-21T19:11:57.726Z,94672.25
2019-05-21T19:14:23.844Z,94674.13
2019-05-21T19:16:49.951Z,94666.67
2019-05-21T19:19:16.074Z,94670.61
2019-05-21T19:21:42.088Z,94667.92
2019-05-21T19:24:08.231Z,94660.48
2019-05-21T19:26:34.233Z,94665.26
2019-05-21T19:29:00.318Z,94659.67
2019-05-21T19:31:26.328Z,94659.67
2019-05-21T19:33:52.234Z,94668.70
2019-05-21T19:36:18.244Z,94667.38
2019-05-21T19:38:44.451Z,94674.84
2019-05-21T19:41:10.588Z,94675.09
2019-05-21T19:43:36.770Z,94665.81
2019-05-21T19:46:03.044Z,94666.33
2019-05-21T19:48:29.098Z,94671.13
2019-05-21T19:50:55.191Z,94674.57
2019-05-21T19:53:21.257Z,94676.45
2019-05-21T19:55:47.588Z,94667.40
2019-05-21T19:58:13.803Z,94672.95
2019-05-21T20:00:41.716Z,94659.88
2019-05-21T20:03:08.522Z,94662.02
2019-05-21T20:05:34.878Z,94659.07
2019-05-21T20:08:01.610Z,94652.42
2019-05-21T20:10:27.918Z,94639.92
2019-05-21T20:12:54.029Z,94640.70
2019-05-21T20:15:20.043Z,94640.91
2019-05-21T20:17:50.790Z,94635.81
2019-05-21T20:20:19.040Z,94626.25
2019-05-21T20:22:46.160Z,94627.02
2019-05-21T20:25:12.369Z,94620.12
2019-05-21T20:27:38.806Z,94604.64
2019-05-21T20:30:12.865Z,94609.97
2019-05-21T20:32:36.109Z,94609.97
2019-05-21T20:35:05.427Z,94617.98
2019-05-21T20:37:31.554Z,94625.64
2019-05-21T20:39:58.996Z,94640.75
2019-05-21T20:42:25.898Z,94644.15
2019-05-21T20:44:52.239Z,94637.21
2019-05-21T20:47:18.422Z,94639.12
2019-05-21T20:49:45.438Z,94631.73
2019-05-21T20:52:18.584Z,94638.16
2019-05-21T20:54:41.947Z,94643.50
2019-05-21T20:57:10.206Z,94654.15
2019-05-21T20:59:36.343Z,94657.06
2019-05-21T21:02:08.103Z,94651.48
2019-05-21T21:04:32.671Z,94638.48
2019-05-21T21:06:59.505Z,94642.20
2019-05-21T21:09:25.631Z,94633.42
2019-05-21T21:11:52.068Z,94634.45
2019-05-21T21:14:18.690Z,94633.42
2019-05-21T21:16:45.326Z,94648.56
2019-05-21T21:19:11.426Z,94651.23
2019-05-21T21:21:37.675Z,94660.02
2019-05-21T21:24:03.779Z,94650.45
2019-05-21T21:26:30.392Z,94649.41
2019-05-21T21:28:56.406Z,94640.88
2019-05-21T21:31:22.556Z,94654.70
2019-05-21T21:33:48.763Z,94644.05
2019-05-21T21:36:14.969Z,94650.41
2019-05-21T21:38:41.109Z,94652.55
2019-05-21T21:41:07.508Z,94655.22
2019-05-21T21:43:33.815Z,94658.95
2019-05-21T21:45:59.929Z,94658.43
2019-05-21T21:48:26.049Z,94664.82
2019-05-21T21:50:52.467Z,94649.89
2019-05-21T21:53:19.001Z,94649.89
2019-05-21T21:55:45.008Z,94637.92
2019-05-21T21:58:11.124Z,94636.08
2019-05-21T22:01:04.084Z,94623.03
2019-05-21T22:03:33.229Z,94618.50
2019-05-21T22:06:00.241Z,94618.47
2019-05-21T22:08:27.861Z,94614.16
2019-05-21T22:10:53.865Z,94614.13
2019-05-21T22:13:20.181Z,94609.30
2019-05-21T22:15:46.386Z,94613.83
2019-05-21T22:18:13.489Z,94615.48
2019-05-21T22:20:39.629Z,94613.89
2019-05-21T22:23:06.363Z,94614.09
2019-05-21T22:25:32.466Z,94619.41
2019-05-21T22:27:58.392Z,94623.36
2019-05-21T22:30:26.209Z,94622.55
2019-05-21T22:32:52.287Z,94614.83
2019-05-21T22:35:18.333Z,94617.27
2019-05-21T22:37:44.453Z,94622.91
2019-05-21T22:40:10.660Z,94621.61
2019-05-21T22:42:36.866Z,94620.55
2019-05-21T22:45:08.443Z,94624.56
2019-05-21T22:47:33.910Z,94627.19
2019-05-21T22:50:00.245Z,94615.20
2019-05-21T22:52:26.285Z,94612.30
2019-05-21T22:54:52.395Z,94613.34
2019-05-21T22:57:18.509Z,94612.53
2019-05-21T22:59:45.058Z,94613.86
2019-05-21T23:02:13.063Z,94612.53
2019-05-21T23:04:39.171Z,94612.30
2019-05-21T23:07:05.882Z,94621.88
2019-05-21T23:09:31.933Z,94614.97
2019-05-21T23:11:58.083Z,94608.05
2019-05-21T23:14:24.284Z,94601.15
2019-05-21T23:16:50.319Z,94600.59
2019-05-21T23:19:18.134Z,94590.48
2019-05-21T23:21:45.640Z,94587.79
2019-05-21T23:24:13.654Z,94580.85
2019-05-21T23:26:40.858Z,94587.50
2019-05-21T23:29:08.081Z,94573.13
2019-05-21T23:31:34.097Z,94577.41
2019-05-21T23:34:00.738Z,94575.59
2019-05-21T23:36:27.243Z,94571.08
2019-05-21T23:38:53.289Z,94576.69
2019-05-21T23:41:19.998Z,94571.11
2019-05-21T23:43:48.101Z,94579.64
2019-05-21T23:46:14.614Z,94578.31
2019-05-21T23:48:41.522Z,94571.14
2019-05-21T23:51:07.731Z,94569.02
2019-05-21T23:53:34.139Z,94569.80
2019-05-21T23:56:00.240Z,94563.70
2019-05-21T23:58:26.351Z,94565.30
